sensor_id;sensor_type;location;lat;lon;timestamp;temperature;humidity
43987;DHT22;29650;47.378;8.300;2023-07-29T00:01:40;18.10;99.90
43987;DHT22;29650;47.378;8.300;2023-07-29T00:04:07;18.10;99.90
43987;DHT22;29650;47.378;8.300;2023-07-29T00:06:35;18.20;99.90
43987;DHT22;29650;47.378;8.300;2023-07-29T00:09:02;18.10;99.90
43987;DHT22;29650;47.378;8.300;2023-07-29T00:11:29;18.10;99.90
43987;DHT22;29650;47.378;8.300;2023-07-29T00:14:00;18.00;99.90
43987;DHT22;29650;47.378;8.300;2023-07-29T00:16:27;17.90;99.90
43987;DHT22;29650;47.378;8.300;2023-07-29T00:18:54;18.00;99.90
43987;DHT22;29650;47.378;8.300;2023-07-29T00:21:21;18.00;99.90
43987;DHT22;29650;47.378;8.300;2023-07-29T00:23:48;17.80;99.90
43987;DHT22;29650;47.378;8.300;2023-07-29T00:26:15;17.90;99.90
43987;DHT22;29650;47.378;8.300;2023-07-29T00:28:42;17.80;99.90
43987;DHT22;29650;47.378;8.300;2023-07-29T00:31:11;17.90;99.90
43987;DHT22;29650;47.378;8.300;2023-07-29T00:33:38;17.90;99.90
43987;DHT22;29650;47.378;8.300;2023-07-29T00:36:05;18.00;99.90
43987;DHT22;29650;47.378;8.300;2023-07-29T00:38:32;17.80;99.90
43987;DHT22;29650;47.378;8.300;2023-07-29T00:41:00;18.00;99.90
43987;DHT22;29650;47.378;8.300;2023-07-29T00:43:30;18.00;99.90
43987;DHT22;29650;47.378;8.300;2023-07-29T00:45:57;18.00;99.90
43987;DHT22;29650;47.378;8.300;2023-07-29T00:48:26;18.00;99.90
43987;DHT22;29650;47.378;8.300;2023-07-29T00:50:53;17.90;99.90
43987;DHT22;29650;47.378;8.300;2023-07-29T00:53:20;18.00;99.90
43987;DHT22;29650;47.378;8.300;2023-07-29T00:55:47;17.90;99.90
43987;DHT22;29650;47.378;8.300;2023-07-29T00:58:14;17.90;99.90
43987;DHT22;29650;47.378;8.300;2023-07-29T01:00:41;18.00;99.90
43987;DHT22;29650;47.378;8.300;2023-07-29T01:03:09;17.90;99.90
43987;DHT22;29650;47.378;8.300;2023-07-29T01:05:46;17.80;99.90
43987;DHT22;29650;47.378;8.300;2023-07-29T01:08:21;17.90;99.90
43987;DHT22;29650;47.378;8.300;2023-07-29T01:10:54;17.90;99.90
43987;DHT22;29650;47.378;8.300;2023-07-29T01:13:28;18.00;99.90
43987;DHT22;29650;47.378;8.300;2023-07-29T01:16:00;18.00;99.90
43987;DHT22;29650;47.378;8.300;2023-07-29T01:18:31;18.00;99.90
43987;DHT22;29650;47.378;8.300;2023-07-29T01:21:03;18.00;99.90
43987;DHT22;29650;47.378;8.300;2023-07-29T01:23:33;18.00;99.90
43987;DHT22;29650;47.378;8.300;2023-07-29T01:26:00;18.10;99.90
43987;DHT22;29650;47.378;8.300;2023-07-29T01:28:28;18.00;99.90
43987;DHT22;29650;47.378;8.300;2023-07-29T01:31:01;17.90;99.90
43987;DHT22;29650;47.378;8.300;2023-07-29T01:33:35;17.60;99.90
43987;DHT22;29650;47.378;8.300;2023-07-29T01:36:07;17.80;99.90
43987;DHT22;29650;47.378;8.300;2023-07-29T01:38:41;18.00;99.90
43987;DHT22;29650;47.378;8.300;2023-07-29T01:41:09;18.00;99.90
43987;DHT22;29650;47.378;8.300;2023-07-29T01:43:37;18.00;99.90
43987;DHT22;29650;47.378;8.300;2023-07-29T01:46:09;18.00;99.90
43987;DHT22;29650;47.378;8.300;2023-07-29T01:48:37;18.10;99.90
43987;DHT22;29650;47.378;8.300;2023-07-29T01:51:05;18.20;99.90
43987;DHT22;29650;47.378;8.300;2023-07-29T01:53:32;18.20;99.90
43987;DHT22;29650;47.378;8.300;2023-07-29T01:56:02;18.20;99.90
43987;DHT22;29650;47.378;8.300;2023-07-29T01:58:29;18.30;99.90
43987;DHT22;29650;47.378;8.300;2023-07-29T02:00:56;18.30;99.90
43987;DHT22;29650;47.378;8.300;2023-07-29T02:03:22;18.30;99.90
43987;DHT22;29650;47.378;8.300;2023-07-29T02:05:49;18.30;99.90
43987;DHT22;29650;47.378;8.300;2023-07-29T02:08:16;18.30;99.90
43987;DHT22;29650;47.378;8.300;2023-07-29T02:10:43;18.30;99.90
43987;DHT22;29650;47.378;8.300;2023-07-29T02:13:12;18.20;99.90
43987;DHT22;29650;47.378;8.300;2023-07-29T02:15:39;18.30;99.90
43987;DHT22;29650;47.378;8.300;2023-07-29T02:18:06;18.10;99.90
43987;DHT22;29650;47.378;8.300;2023-07-29T02:20:33;18.00;99.90
43987;DHT22;29650;47.378;8.300;2023-07-29T02:23:00;17.70;99.90
43987;DHT22;29650;47.378;8.300;2023-07-29T02:25:27;17.80;99.90
43987;DHT22;29650;47.378;8.300;2023-07-29T02:27:54;17.80;99.90
43987;DHT22;29650;47.378;8.300;2023-07-29T02:30:22;17.70;99.90
43987;DHT22;29650;47.378;8.300;2023-07-29T02:32:49;17.80;99.90
43987;DHT22;29650;47.378;8.300;2023-07-29T02:35:16;17.90;99.90
43987;DHT22;29650;47.378;8.300;2023-07-29T02:37:43;17.90;99.90
43987;DHT22;29650;47.378;8.300;2023-07-29T02:40:11;18.00;99.90
43987;DHT22;29650;47.378;8.300;2023-07-29T02:42:38;18.20;99.90
43987;DHT22;29650;47.378;8.300;2023-07-29T02:45:05;18.20;99.90
43987;DHT22;29650;47.378;8.300;2023-07-29T02:47:36;18.20;99.90
43987;DHT22;29650;47.378;8.300;2023-07-29T02:50:04;18.20;99.90
43987;DHT22;29650;47.378;8.300;2023-07-29T02:52:31;18.20;99.90
43987;DHT22;29650;47.378;8.300;2023-07-29T02:54:58;16.30;99.90
43987;DHT22;29650;47.378;8.300;2023-07-29T02:57:25;18.10;99.90
43987;DHT22;29650;47.378;8.300;2023-07-29T02:59:51;18.10;99.90
43987;DHT22;29650;47.378;8.300;2023-07-29T03:02:18;18.30;99.90
43987;DHT22;29650;47.378;8.300;2023-07-29T03:04:47;18.30;99.90
43987;DHT22;29650;47.378;8.300;2023-07-29T03:07:14;18.20;99.90
43987;DHT22;29650;47.378;8.300;2023-07-29T03:09:41;18.20;99.90
43987;DHT22;29650;47.378;8.300;2023-07-29T03:12:10;18.20;99.90
43987;DHT22;29650;47.378;8.300;2023-07-29T03:14:36;18.10;99.90
43987;DHT22;29650;47.378;8.300;2023-07-29T03:17:04;18.20;99.90
43987;DHT22;29650;47.378;8.300;2023-07-29T03:19:31;18.20;99.90
43987;DHT22;29650;47.378;8.300;2023-07-29T03:22:00;18.10;99.90
43987;DHT22;29650;47.378;8.300;2023-07-29T03:24:27;18.20;99.90
43987;DHT22;29650;47.378;8.300;2023-07-29T03:26:54;18.30;99.90
43987;DHT22;29650;47.378;8.300;2023-07-29T03:29:21;17.90;99.90
43987;DHT22;29650;47.378;8.300;2023-07-29T03:31:48;18.30;99.90
43987;DHT22;29650;47.378;8.300;2023-07-29T03:34:15;18.30;99.90
43987;DHT22;29650;47.378;8.300;2023-07-29T03:36:42;18.40;99.90
43987;DHT22;29650;47.378;8.300;2023-07-29T03:39:13;16.50;99.90
43987;DHT22;29650;47.378;8.300;2023-07-29T03:41:40;18.30;99.90
43987;DHT22;29650;47.378;8.300;2023-07-29T03:44:06;18.20;99.90
43987;DHT22;29650;47.378;8.300;2023-07-29T03:46:33;18.20;99.90
43987;DHT22;29650;47.378;8.300;2023-07-29T03:49:00;18.30;99.90
43987;DHT22;29650;47.378;8.300;2023-07-29T03:51:30;18.20;99.90
43987;DHT22;29650;47.378;8.300;2023-07-29T03:53:57;18.20;99.90
43987;DHT22;29650;47.378;8.300;2023-07-29T03:56:26;18.20;99.90
43987;DHT22;29650;47.378;8.300;2023-07-29T03:58:53;18.10;99.90
43987;DHT22;29650;47.378;8.300;2023-07-29T04:01:20;18.10;99.90
43987;DHT22;29650;47.378;8.300;2023-07-29T04:03:47;18.10;99.90
43987;DHT22;29650;47.378;8.300;2023-07-29T04:06:14;18.00;99.90
43987;DHT22;29650;47.378;8.300;2023-07-29T04:08:41;18.00;99.90
43987;DHT22;29650;47.378;8.300;2023-07-29T04:11:08;18.10;99.90
43987;DHT22;29650;47.378;8.300;2023-07-29T04:13:36;18.10;99.90
43987;DHT22;29650;47.378;8.300;2023-07-29T04:16:04;18.10;99.90
43987;DHT22;29650;47.378;8.300;2023-07-29T04:18:31;18.10;99.90
43987;DHT22;29650;47.378;8.300;2023-07-29T04:20:58;18.20;99.90
43987;DHT22;29650;47.378;8.300;2023-07-29T04:23:25;18.10;99.90
43987;DHT22;29650;47.378;8.300;2023-07-29T04:25:52;18.10;99.90
43987;DHT22;29650;47.378;8.300;2023-07-29T04:28:19;18.20;99.90
43987;DHT22;29650;47.378;8.300;2023-07-29T04:30:47;18.20;99.90
43987;DHT22;29650;47.378;8.300;2023-07-29T04:33:14;18.20;99.90
43987;DHT22;29650;47.378;8.300;2023-07-29T04:35:41;16.70;99.90
43987;DHT22;29650;47.378;8.300;2023-07-29T04:38:08;18.10;99.90
43987;DHT22;29650;47.378;8.300;2023-07-29T04:40:35;18.00;99.90
43987;DHT22;29650;47.378;8.300;2023-07-29T04:43:02;19.30;99.90
43987;DHT22;29650;47.378;8.300;2023-07-29T04:45:29;18.10;99.90
43987;DHT22;29650;47.378;8.300;2023-07-29T04:47:58;18.10;99.90
43987;DHT22;29650;47.378;8.300;2023-07-29T04:50:25;18.20;99.90
43987;DHT22;29650;47.378;8.300;2023-07-29T04:52:52;18.40;99.90
43987;DHT22;29650;47.378;8.300;2023-07-29T04:55:19;18.40;99.90
43987;DHT22;29650;47.378;8.300;2023-07-29T04:57:49;18.30;99.90
43987;DHT22;29650;47.378;8.300;2023-07-29T05:00:16;18.30;99.90
43987;DHT22;29650;47.378;8.300;2023-07-29T05:02:43;18.30;99.90
43987;DHT22;29650;47.378;8.300;2023-07-29T05:05:12;18.50;99.90
43987;DHT22;29650;47.378;8.300;2023-07-29T05:07:39;18.40;99.90
43987;DHT22;29650;47.378;8.300;2023-07-29T05:10:07;18.50;99.90
43987;DHT22;29650;47.378;8.300;2023-07-29T05:12:34;18.50;99.90
43987;DHT22;29650;47.378;8.300;2023-07-29T05:15:01;18.40;99.90
43987;DHT22;29650;47.378;8.300;2023-07-29T05:17:28;18.40;99.90
43987;DHT22;29650;47.378;8.300;2023-07-29T05:19:55;18.50;99.90
43987;DHT22;29650;47.378;8.300;2023-07-29T05:22:23;18.40;99.90
43987;DHT22;29650;47.378;8.300;2023-07-29T05:24:50;18.50;99.90
43987;DHT22;29650;47.378;8.300;2023-07-29T05:27:17;18.60;99.90
43987;DHT22;29650;47.378;8.300;2023-07-29T05:29:44;18.60;99.90
43987;DHT22;29650;47.378;8.300;2023-07-29T05:32:11;18.60;99.90
43987;DHT22;29650;47.378;8.300;2023-07-29T05:34:38;18.60;99.90
43987;DHT22;29650;47.378;8.300;2023-07-29T05:37:05;18.60;99.90
43987;DHT22;29650;47.378;8.300;2023-07-29T05:39:34;18.70;99.90
43987;DHT22;29650;47.378;8.300;2023-07-29T05:42:01;18.80;99.90
43987;DHT22;29650;47.378;8.300;2023-07-29T05:44:29;18.80;99.90
43987;DHT22;29650;47.378;8.300;2023-07-29T05:46:56;18.90;99.90
43987;DHT22;29650;47.378;8.300;2023-07-29T05:49:23;18.80;99.90
43987;DHT22;29650;47.378;8.300;2023-07-29T05:51:50;18.80;99.90
43987;DHT22;29650;47.378;8.300;2023-07-29T05:54:18;18.90;99.90
43987;DHT22;29650;47.378;8.300;2023-07-29T05:56:47;18.90;99.90
43987;DHT22;29650;47.378;8.300;2023-07-29T05:59:14;19.20;99.90
43987;DHT22;29650;47.378;8.300;2023-07-29T06:01:41;19.20;99.90
43987;DHT22;29650;47.378;8.300;2023-07-29T06:04:08;20.80;99.90
43987;DHT22;29650;47.378;8.300;2023-07-29T06:06:35;19.60;99.90
43987;DHT22;29650;47.378;8.300;2023-07-29T06:09:02;19.70;99.90
43987;DHT22;29650;47.378;8.300;2023-07-29T06:11:29;19.60;99.90
43987;DHT22;29650;47.378;8.300;2023-07-29T06:13:57;19.60;99.90
43987;DHT22;29650;47.378;8.300;2023-07-29T06:16:24;19.80;99.90
43987;DHT22;29650;47.378;8.300;2023-07-29T06:18:50;20.00;99.90
43987;DHT22;29650;47.378;8.300;2023-07-29T06:21:18;19.90;99.90
43987;DHT22;29650;47.378;8.300;2023-07-29T06:23:45;20.10;99.90
43987;DHT22;29650;47.378;8.300;2023-07-29T06:26:12;20.30;99.90
43987;DHT22;29650;47.378;8.300;2023-07-29T06:28:39;20.20;99.90
43987;DHT22;29650;47.378;8.300;2023-07-29T06:31:07;20.30;99.90
43987;DHT22;29650;47.378;8.300;2023-07-29T06:33:33;20.50;99.90
43987;DHT22;29650;47.378;8.300;2023-07-29T06:36:00;20.50;99.90
43987;DHT22;29650;47.378;8.300;2023-07-29T06:38:27;20.50;99.90
43987;DHT22;29650;47.378;8.300;2023-07-29T06:40:53;20.40;99.90
43987;DHT22;29650;47.378;8.300;2023-07-29T06:43:20;20.20;99.90
43987;DHT22;29650;47.378;8.300;2023-07-29T06:45:47;20.50;99.90
43987;DHT22;29650;47.378;8.300;2023-07-29T06:48:15;20.70;99.90
43987;DHT22;29650;47.378;8.300;2023-07-29T06:50:42;20.80;99.90
43987;DHT22;29650;47.378;8.300;2023-07-29T06:53:09;20.90;99.90
43987;DHT22;29650;47.378;8.300;2023-07-29T06:55:35;20.70;99.90
43987;DHT22;29650;47.378;8.300;2023-07-29T06:58:02;20.60;99.90
43987;DHT22;29650;47.378;8.300;2023-07-29T07:00:29;20.70;99.90
43987;DHT22;29650;47.378;8.300;2023-07-29T07:02:56;20.60;99.90
43987;DHT22;29650;47.378;8.300;2023-07-29T07:05:24;20.70;99.90
43987;DHT22;29650;47.378;8.300;2023-07-29T07:07:50;20.70;99.90
43987;DHT22;29650;47.378;8.300;2023-07-29T07:10:17;20.90;99.90
43987;DHT22;29650;47.378;8.300;2023-07-29T07:12:44;21.00;99.90
43987;DHT22;29650;47.378;8.300;2023-07-29T07:15:11;21.00;99.90
43987;DHT22;29650;47.378;8.300;2023-07-29T07:17:37;21.10;99.90
43987;DHT22;29650;47.378;8.300;2023-07-29T07:20:05;21.10;99.90
43987;DHT22;29650;47.378;8.300;2023-07-29T07:22:33;21.20;99.90
43987;DHT22;29650;47.378;8.300;2023-07-29T07:25:00;21.40;99.90
43987;DHT22;29650;47.378;8.300;2023-07-29T07:27:26;21.60;99.90
43987;DHT22;29650;47.378;8.300;2023-07-29T07:29:53;21.60;99.90
43987;DHT22;29650;47.378;8.300;2023-07-29T07:32:20;21.60;99.90
43987;DHT22;29650;47.378;8.300;2023-07-29T07:34:47;21.60;99.90
43987;DHT22;29650;47.378;8.300;2023-07-29T07:37:13;21.60;99.90
43987;DHT22;29650;47.378;8.300;2023-07-29T07:39:42;21.70;99.90
43987;DHT22;29650;47.378;8.300;2023-07-29T07:42:08;21.80;99.90
43987;DHT22;29650;47.378;8.300;2023-07-29T07:44:35;21.90;99.90
43987;DHT22;29650;47.378;8.300;2023-07-29T07:47:02;22.00;99.90
43987;DHT22;29650;47.378;8.300;2023-07-29T07:49:29;22.00;99.90
43987;DHT22;29650;47.378;8.300;2023-07-29T07:51:56;22.00;99.90
43987;DHT22;29650;47.378;8.300;2023-07-29T07:54:23;22.00;99.90
43987;DHT22;29650;47.378;8.300;2023-07-29T07:56:52;21.80;99.90
43987;DHT22;29650;47.378;8.300;2023-07-29T07:59:19;21.60;99.90
43987;DHT22;29650;47.378;8.300;2023-07-29T08:01:45;21.60;99.90
43987;DHT22;29650;47.378;8.300;2023-07-29T08:04:12;21.90;99.90
43987;DHT22;29650;47.378;8.300;2023-07-29T08:06:39;22.10;99.90
43987;DHT22;29650;47.378;8.300;2023-07-29T08:09:06;22.10;99.90
43987;DHT22;29650;47.378;8.300;2023-07-29T08:11:33;22.20;99.90
43987;DHT22;29650;47.378;8.300;2023-07-29T08:14:02;22.20;99.90
43987;DHT22;29650;47.378;8.300;2023-07-29T08:16:29;22.30;99.90
43987;DHT22;29650;47.378;8.300;2023-07-29T08:18:56;22.40;99.90
43987;DHT22;29650;47.378;8.300;2023-07-29T08:21:23;22.60;99.90
43987;DHT22;29650;47.378;8.300;2023-07-29T08:23:50;22.60;99.90
43987;DHT22;29650;47.378;8.300;2023-07-29T08:26:17;22.60;99.90
43987;DHT22;29650;47.378;8.300;2023-07-29T08:28:44;22.60;99.90
43987;DHT22;29650;47.378;8.300;2023-07-29T08:31:12;22.40;99.90
43987;DHT22;29650;47.378;8.300;2023-07-29T08:33:39;22.80;99.90
43987;DHT22;29650;47.378;8.300;2023-07-29T08:36:06;22.80;99.90
43987;DHT22;29650;47.378;8.300;2023-07-29T08:38:33;23.10;99.90
43987;DHT22;29650;47.378;8.300;2023-07-29T08:41:06;23.20;99.90
43987;DHT22;29650;47.378;8.300;2023-07-29T08:43:38;23.20;99.90
43987;DHT22;29650;47.378;8.300;2023-07-29T08:46:06;23.00;99.90
43987;DHT22;29650;47.378;8.300;2023-07-29T08:48:40;23.10;99.90
43987;DHT22;29650;47.378;8.300;2023-07-29T08:51:08;23.20;99.90
43987;DHT22;29650;47.378;8.300;2023-07-29T08:53:36;23.50;99.90
43987;DHT22;29650;47.378;8.300;2023-07-29T08:56:11;23.60;99.90
43987;DHT22;29650;47.378;8.300;2023-07-29T08:58:39;23.80;99.90
43987;DHT22;29650;47.378;8.300;2023-07-29T09:01:06;23.60;99.90
43987;DHT22;29650;47.378;8.300;2023-07-29T09:03:35;23.60;99.90
43987;DHT22;29650;47.378;8.300;2023-07-29T09:06:02;23.60;99.70
43987;DHT22;29650;47.378;8.300;2023-07-29T09:08:31;23.80;97.20
43987;DHT22;29650;47.378;8.300;2023-07-29T09:10:59;23.70;96.70
43987;DHT22;29650;47.378;8.300;2023-07-29T09:13:26;23.70;96.10
43987;DHT22;29650;47.378;8.300;2023-07-29T09:15:55;23.90;94.40
43987;DHT22;29650;47.378;8.300;2023-07-29T09:18:22;24.10;94.60
43987;DHT22;29650;47.378;8.300;2023-07-29T09:20:51;24.30;96.30
43987;DHT22;29650;47.378;8.300;2023-07-29T09:23:18;23.70;97.10
43987;DHT22;29650;47.378;8.300;2023-07-29T09:25:46;24.60;98.30
43987;DHT22;29650;47.378;8.300;2023-07-29T09:28:15;24.40;94.50
43987;DHT22;29650;47.378;8.300;2023-07-29T09:30:45;24.60;98.00
43987;DHT22;29650;47.378;8.300;2023-07-29T09:33:12;24.40;97.60
43987;DHT22;29650;47.378;8.300;2023-07-29T09:35:39;24.50;97.10
43987;DHT22;29650;47.378;8.300;2023-07-29T09:38:08;24.80;96.90
43987;DHT22;29650;47.378;8.300;2023-07-29T09:40:35;24.80;95.70
43987;DHT22;29650;47.378;8.300;2023-07-29T09:43:04;24.80;93.90
43987;DHT22;29650;47.378;8.300;2023-07-29T09:45:33;24.90;93.20
43987;DHT22;29650;47.378;8.300;2023-07-29T09:48:00;25.20;94.60
43987;DHT22;29650;47.378;8.300;2023-07-29T09:50:28;25.20;92.70
43987;DHT22;29650;47.378;8.300;2023-07-29T09:52:56;24.90;92.40
43987;DHT22;29650;47.378;8.300;2023-07-29T09:55:26;25.10;94.60
43987;DHT22;29650;47.378;8.300;2023-07-29T09:57:56;25.00;94.00
43987;DHT22;29650;47.378;8.300;2023-07-29T10:00:23;25.00;94.30
43987;DHT22;29650;47.378;8.300;2023-07-29T10:02:52;24.90;95.80
43987;DHT22;29650;47.378;8.300;2023-07-29T10:05:21;25.10;94.20
43987;DHT22;29650;47.378;8.300;2023-07-29T10:07:51;25.10;92.80
43987;DHT22;29650;47.378;8.300;2023-07-29T10:10:20;24.70;96.50
43987;DHT22;29650;47.378;8.300;2023-07-29T10:12:50;24.40;97.10
43987;DHT22;29650;47.378;8.300;2023-07-29T10:15:18;24.70;96.20
43987;DHT22;29650;47.378;8.300;2023-07-29T10:17:46;24.60;94.30
43987;DHT22;29650;47.378;8.300;2023-07-29T10:20:13;25.00;94.70
43987;DHT22;29650;47.378;8.300;2023-07-29T10:22:42;25.40;92.30
43987;DHT22;29650;47.378;8.300;2023-07-29T10:25:15;25.30;92.00
43987;DHT22;29650;47.378;8.300;2023-07-29T10:27:45;25.30;92.70
43987;DHT22;29650;47.378;8.300;2023-07-29T10:30:16;25.20;92.20
43987;DHT22;29650;47.378;8.300;2023-07-29T10:32:44;25.10;93.40
43987;DHT22;29650;47.378;8.300;2023-07-29T10:35:15;24.90;91.90
43987;DHT22;29650;47.378;8.300;2023-07-29T10:37:43;24.70;94.00
43987;DHT22;29650;47.378;8.300;2023-07-29T10:40:17;24.70;96.00
43987;DHT22;29650;47.378;8.300;2023-07-29T10:43:02;24.60;98.70
43987;DHT22;29650;47.378;8.300;2023-07-29T10:45:38;24.50;99.20
43987;DHT22;29650;47.378;8.300;2023-07-29T10:48:06;24.60;97.70
43987;DHT22;29650;47.378;8.300;2023-07-29T10:50:37;24.60;98.50
43987;DHT22;29650;47.378;8.300;2023-07-29T10:53:04;24.50;99.90
43987;DHT22;29650;47.378;8.300;2023-07-29T10:55:33;24.50;97.40
43987;DHT22;29650;47.378;8.300;2023-07-29T10:58:07;24.40;99.90
43987;DHT22;29650;47.378;8.300;2023-07-29T11:00:34;24.20;99.60
43987;DHT22;29650;47.378;8.300;2023-07-29T11:03:05;23.90;99.00
43987;DHT22;29650;47.378;8.300;2023-07-29T11:05:47;23.60;99.50
43987;DHT22;29650;47.378;8.300;2023-07-29T11:08:23;23.60;99.90
43987;DHT22;29650;47.378;8.300;2023-07-29T11:11:14;23.40;99.90
43987;DHT22;29650;47.378;8.300;2023-07-29T11:13:41;23.30;99.90
43987;DHT22;29650;47.378;8.300;2023-07-29T11:16:16;23.30;99.90
43987;DHT22;29650;47.378;8.300;2023-07-29T11:18:46;22.90;99.90
43987;DHT22;29650;47.378;8.300;2023-07-29T11:21:14;22.70;99.90
43987;DHT22;29650;47.378;8.300;2023-07-29T11:23:42;22.40;99.90
43987;DHT22;29650;47.378;8.300;2023-07-29T11:26:09;22.00;99.90
43987;DHT22;29650;47.378;8.300;2023-07-29T11:28:39;21.80;99.90
43987;DHT22;29650;47.378;8.300;2023-07-29T11:31:06;22.20;99.90
43987;DHT22;29650;47.378;8.300;2023-07-29T11:33:33;22.50;99.90
43987;DHT22;29650;47.378;8.300;2023-07-29T11:36:04;23.00;99.90
43987;DHT22;29650;47.378;8.300;2023-07-29T11:38:31;23.40;99.90
43987;DHT22;29650;47.378;8.300;2023-07-29T11:41:02;23.60;99.90
43987;DHT22;29650;47.378;8.300;2023-07-29T11:43:29;23.80;99.90
43987;DHT22;29650;47.378;8.300;2023-07-29T11:46:01;24.00;99.80
43987;DHT22;29650;47.378;8.300;2023-07-29T11:48:32;23.70;99.90
43987;DHT22;29650;47.378;8.300;2023-07-29T11:51:01;23.70;99.90
43987;DHT22;29650;47.378;8.300;2023-07-29T11:53:29;23.40;99.90
43987;DHT22;29650;47.378;8.300;2023-07-29T11:55:57;23.20;99.90
43987;DHT22;29650;47.378;8.300;2023-07-29T11:58:26;23.30;99.90
43987;DHT22;29650;47.378;8.300;2023-07-29T12:00:53;23.10;99.90
43987;DHT22;29650;47.378;8.300;2023-07-29T12:03:21;22.90;99.90
43987;DHT22;29650;47.378;8.300;2023-07-29T12:05:49;23.00;99.90
43987;DHT22;29650;47.378;8.300;2023-07-29T12:08:17;23.00;99.90
43987;DHT22;29650;47.378;8.300;2023-07-29T12:10:44;22.80;99.90
43987;DHT22;29650;47.378;8.300;2023-07-29T12:13:12;22.80;99.90
43987;DHT22;29650;47.378;8.300;2023-07-29T12:15:39;22.70;99.90
43987;DHT22;29650;47.378;8.300;2023-07-29T12:18:06;22.40;99.90
43987;DHT22;29650;47.378;8.300;2023-07-29T12:20:34;22.30;99.90
43987;DHT22;29650;47.378;8.300;2023-07-29T12:23:01;22.30;99.90
43987;DHT22;29650;47.378;8.300;2023-07-29T12:25:30;22.20;99.90
43987;DHT22;29650;47.378;8.300;2023-07-29T12:28:03;21.90;99.90
43987;DHT22;29650;47.378;8.300;2023-07-29T12:30:30;21.70;99.90
43987;DHT22;29650;47.378;8.300;2023-07-29T12:32:57;21.40;99.90
43987;DHT22;29650;47.378;8.300;2023-07-29T12:35:25;21.10;99.90
43987;DHT22;29650;47.378;8.300;2023-07-29T12:38:00;20.20;99.90
43987;DHT22;29650;47.378;8.300;2023-07-29T12:40:27;19.90;99.90
43987;DHT22;29650;47.378;8.300;2023-07-29T12:42:56;20.00;99.90
43987;DHT22;29650;47.378;8.300;2023-07-29T12:45:23;19.90;99.90
43987;DHT22;29650;47.378;8.300;2023-07-29T12:47:52;19.80;99.90
43987;DHT22;29650;47.378;8.300;2023-07-29T12:50:19;19.90;99.90
43987;DHT22;29650;47.378;8.300;2023-07-29T12:52:46;20.10;99.90
43987;DHT22;29650;47.378;8.300;2023-07-29T12:55:13;20.00;99.90
43987;DHT22;29650;47.378;8.300;2023-07-29T12:57:41;20.30;99.90
43987;DHT22;29650;47.378;8.300;2023-07-29T13:00:11;20.40;99.90
43987;DHT22;29650;47.378;8.300;2023-07-29T13:02:39;20.20;99.90
43987;DHT22;29650;47.378;8.300;2023-07-29T13:05:09;20.10;99.90
43987;DHT22;29650;47.378;8.300;2023-07-29T13:07:37;20.10;99.90
43987;DHT22;29650;47.378;8.300;2023-07-29T13:10:04;20.10;99.90
43987;DHT22;29650;47.378;8.300;2023-07-29T13:12:32;20.10;99.90
43987;DHT22;29650;47.378;8.300;2023-07-29T13:14:59;20.10;99.90
43987;DHT22;29650;47.378;8.300;2023-07-29T13:17:27;20.10;99.90
43987;DHT22;29650;47.378;8.300;2023-07-29T13:19:54;20.10;99.90
43987;DHT22;29650;47.378;8.300;2023-07-29T13:22:21;19.90;99.90
43987;DHT22;29650;47.378;8.300;2023-07-29T13:24:48;19.50;99.90
43987;DHT22;29650;47.378;8.300;2023-07-29T13:27:15;20.10;99.90
43987;DHT22;29650;47.378;8.300;2023-07-29T13:29:42;20.20;99.90
43987;DHT22;29650;47.378;8.300;2023-07-29T13:32:10;20.00;99.90
43987;DHT22;29650;47.378;8.300;2023-07-29T13:34:38;20.20;99.90
43987;DHT22;29650;47.378;8.300;2023-07-29T13:37:06;20.20;99.90
43987;DHT22;29650;47.378;8.300;2023-07-29T13:39:32;20.00;99.90
43987;DHT22;29650;47.378;8.300;2023-07-29T13:41:59;20.00;99.90
43987;DHT22;29650;47.378;8.300;2023-07-29T13:44:27;20.10;99.90
43987;DHT22;29650;47.378;8.300;2023-07-29T13:46:54;20.00;99.90
43987;DHT22;29650;47.378;8.300;2023-07-29T13:49:21;20.10;99.90
43987;DHT22;29650;47.378;8.300;2023-07-29T13:51:49;20.20;99.90
43987;DHT22;29650;47.378;8.300;2023-07-29T13:54:16;19.00;99.90
43987;DHT22;29650;47.378;8.300;2023-07-29T13:56:43;20.40;99.90
43987;DHT22;29650;47.378;8.300;2023-07-29T13:59:10;20.50;99.90
43987;DHT22;29650;47.378;8.300;2023-07-29T14:01:37;20.50;99.90
43987;DHT22;29650;47.378;8.300;2023-07-29T14:04:04;20.40;99.90
43987;DHT22;29650;47.378;8.300;2023-07-29T14:06:31;20.30;99.90
43987;DHT22;29650;47.378;8.300;2023-07-29T14:09:00;22.60;99.90
43987;DHT22;29650;47.378;8.300;2023-07-29T14:11:27;20.30;99.90
43987;DHT22;29650;47.378;8.300;2023-07-29T14:13:54;20.00;99.90
43987;DHT22;29650;47.378;8.300;2023-07-29T14:16:21;20.10;99.90
43987;DHT22;29650;47.378;8.300;2023-07-29T14:18:48;19.90;99.90
43987;DHT22;29650;47.378;8.300;2023-07-29T14:21:15;19.70;99.90
43987;DHT22;29650;47.378;8.300;2023-07-29T14:23:42;19.90;99.90
43987;DHT22;29650;47.378;8.300;2023-07-29T14:26:10;19.80;99.90
43987;DHT22;29650;47.378;8.300;2023-07-29T14:28:37;19.70;99.90
43987;DHT22;29650;47.378;8.300;2023-07-29T14:31:04;19.90;99.90
43987;DHT22;29650;47.378;8.300;2023-07-29T14:33:31;19.90;99.90
43987;DHT22;29650;47.378;8.300;2023-07-29T14:35:58;20.10;99.90
43987;DHT22;29650;47.378;8.300;2023-07-29T14:38:25;20.10;99.90
43987;DHT22;29650;47.378;8.300;2023-07-29T14:40:52;20.20;99.90
43987;DHT22;29650;47.378;8.300;2023-07-29T14:43:22;20.40;99.90
43987;DHT22;29650;47.378;8.300;2023-07-29T14:45:49;20.50;99.90
43987;DHT22;29650;47.378;8.300;2023-07-29T14:48:16;20.60;99.90
43987;DHT22;29650;47.378;8.300;2023-07-29T14:50:43;20.50;99.90
43987;DHT22;29650;47.378;8.300;2023-07-29T14:53:10;20.50;99.90
43987;DHT22;29650;47.378;8.300;2023-07-29T14:55:37;20.50;99.90
43987;DHT22;29650;47.378;8.300;2023-07-29T14:58:04;20.70;99.90
43987;DHT22;29650;47.378;8.300;2023-07-29T15:00:32;20.60;99.90
43987;DHT22;29650;47.378;8.300;2023-07-29T15:02:59;20.60;99.90
43987;DHT22;29650;47.378;8.300;2023-07-29T15:05:27;20.70;99.90
43987;DHT22;29650;47.378;8.300;2023-07-29T15:07:54;20.70;99.90
43987;DHT22;29650;47.378;8.300;2023-07-29T15:10:21;20.60;99.90
43987;DHT22;29650;47.378;8.300;2023-07-29T15:12:48;20.70;99.90
43987;DHT22;29650;47.378;8.300;2023-07-29T15:15:15;20.50;99.90
43987;DHT22;29650;47.378;8.300;2023-07-29T15:17:43;20.60;99.90
43987;DHT22;29650;47.378;8.300;2023-07-29T15:20:11;20.70;99.90
43987;DHT22;29650;47.378;8.300;2023-07-29T15:22:40;20.60;99.90
43987;DHT22;29650;47.378;8.300;2023-07-29T15:25:08;20.70;99.90
43987;DHT22;29650;47.378;8.300;2023-07-29T15:27:35;20.70;99.90
43987;DHT22;29650;47.378;8.300;2023-07-29T15:30:03;20.70;99.90
43987;DHT22;29650;47.378;8.300;2023-07-29T15:32:30;20.60;99.90
43987;DHT22;29650;47.378;8.300;2023-07-29T15:34:58;20.70;99.90